sensor_id;sensor_type;location;lat;lon;timestamp;pressure;altitude;pressure_sealevel;temperature;humidity
21730;BME280;11027;51.030;13.812;2023-04-25T00:02:07;99388.53;;;11.76;58.11
21730;BME280;11027;51.030;13.812;2023-04-25T00:04:32;99383.06;;;11.76;58.54
21730;BME280;11027;51.030;13.812;2023-04-25T00:06:59;99374.25;;;11.74;58.07
21730;BME280;11027;51.030;13.812;2023-04-25T00:09:27;99383.06;;;11.76;58.00
21730;BME280;11027;51.030;13.812;2023-04-25T00:11:52;99383.06;;;11.76;58.15
21730;BME280;11027;51.030;13.812;2023-04-25T00:14:17;99378.88;;;11.74;58.32
21730;BME280;11027;51.030;13.812;2023-04-25T00:16:43;99377.19;;;11.73;58.44
21730;BME280;11027;51.030;13.812;2023-04-25T00:19:09;99378.63;;;11.75;58.54
21730;BME280;11027;51.030;13.812;2023-04-25T00:21:34;99375.91;;;11.75;58.55
21730;BME280;11027;51.030;13.812;2023-04-25T00:24:00;99382.44;;;11.68;58.91
21730;BME280;11027;51.030;13.812;2023-04-25T00:26:26;99380.94;;;11.65;58.81
21730;BME280;11027;51.030;13.812;2023-04-25T00:28:52;99382.19;;;11.69;58.94
21730;BME280;11027;51.030;13.812;2023-04-25T00:31:17;99381.81;;;11.72;58.98
21730;BME280;11027;51.030;13.812;2023-04-25T00:33:42;99387.47;;;11.77;59.03
21730;BME280;11027;51.030;13.812;2023-04-25T00:36:07;99380.97;;;11.78;58.98
21730;BME280;11027;51.030;13.812;2023-04-25T00:38:33;99386.81;;;11.75;59.10
21730;BME280;11027;51.030;13.812;2023-04-25T00:40:58;99387.25;;;11.72;59.32
21730;BME280;11027;51.030;13.812;2023-04-25T00:43:25;99378.00;;;11.60;59.56
21730;BME280;11027;51.030;13.812;2023-04-25T00:45:52;99380.09;;;11.58;60.08
21730;BME280;11027;51.030;13.812;2023-04-25T00:48:18;99380.03;;;11.45;60.18
21730;BME280;11027;51.030;13.812;2023-04-25T00:50:51;99382.94;;;11.30;60.68
21730;BME280;11027;51.030;13.812;2023-04-25T00:53:16;99382.72;;;11.25;60.82
21730;BME280;11027;51.030;13.812;2023-04-25T00:55:41;99379.56;;;11.21;61.02
21730;BME280;11027;51.030;13.812;2023-04-25T00:58:07;99374.50;;;11.18;61.18
21730;BME280;11027;51.030;13.812;2023-04-25T01:00:32;99374.66;;;11.03;60.93
21730;BME280;11027;51.030;13.812;2023-04-25T01:02:58;99377.78;;;10.93;61.52
21730;BME280;11027;51.030;13.812;2023-04-25T01:05:23;99374.13;;;10.79;61.71
21730;BME280;11027;51.030;13.812;2023-04-25T01:07:49;99378.00;;;10.64;62.15
21730;BME280;11027;51.030;13.812;2023-04-25T01:10:14;99375.41;;;10.49;62.56
21730;BME280;11027;51.030;13.812;2023-04-25T01:12:40;99380.22;;;10.47;62.62
21730;BME280;11027;51.030;13.812;2023-04-25T01:15:06;99374.00;;;10.59;62.72
21730;BME280;11027;51.030;13.812;2023-04-25T01:17:31;99379.88;;;10.56;62.51
21730;BME280;11027;51.030;13.812;2023-04-25T01:19:59;99380.06;;;10.55;62.60
21730;BME280;11027;51.030;13.812;2023-04-25T01:22:24;99374.00;;;10.59;62.40
21730;BME280;11027;51.030;13.812;2023-04-25T01:24:49;99387.25;;;10.63;62.48
21730;BME280;11027;51.030;13.812;2023-04-25T01:27:15;99381.06;;;10.47;62.80
21730;BME280;11027;51.030;13.812;2023-04-25T01:29:40;99383.78;;;10.47;62.48
21730;BME280;11027;51.030;13.812;2023-04-25T01:32:06;99382.47;;;10.36;62.67
21730;BME280;11027;51.030;13.812;2023-04-25T01:34:32;99381.47;;;10.23;63.07
21730;BME280;11027;51.030;13.812;2023-04-25T01:36:59;99377.28;;;10.20;63.04
21730;BME280;11027;51.030;13.812;2023-04-25T01:39:25;99380.53;;;10.09;63.26
21730;BME280;11027;51.030;13.812;2023-04-25T01:41:50;99381.38;;;10.09;63.21
21730;BME280;11027;51.030;13.812;2023-04-25T01:44:15;99378.13;;;10.20;62.79
21730;BME280;11027;51.030;13.812;2023-04-25T01:46:41;99383.16;;;10.24;62.69
21730;BME280;11027;51.030;13.812;2023-04-25T01:49:06;99379.41;;;10.25;62.56
21730;BME280;11027;51.030;13.812;2023-04-25T01:51:32;99375.59;;;10.19;62.34
21730;BME280;11027;51.030;13.812;2023-04-25T01:53:57;99372.97;;;10.04;62.63
21730;BME280;11027;51.030;13.812;2023-04-25T01:56:23;99372.56;;;10.07;62.62
21730;BME280;11027;51.030;13.812;2023-04-25T01:58:49;99373.38;;;10.08;62.33
21730;BME280;11027;51.030;13.812;2023-04-25T02:01:14;99383.44;;;10.07;62.69
21730;BME280;11027;51.030;13.812;2023-04-25T02:03:39;99385.13;;;10.08;62.28
21730;BME280;11027;51.030;13.812;2023-04-25T02:06:05;99379.06;;;10.06;62.40
21730;BME280;11027;51.030;13.812;2023-04-25T02:08:30;99378.25;;;10.12;62.17
21730;BME280;11027;51.030;13.812;2023-04-25T02:10:56;99381.63;;;10.14;62.29
21730;BME280;11027;51.030;13.812;2023-04-25T02:13:21;99382.28;;;10.16;61.68
21730;BME280;11027;51.030;13.812;2023-04-25T02:15:47;99383.06;;;10.10;61.58
21730;BME280;11027;51.030;13.812;2023-04-25T02:18:12;99380.06;;;10.05;61.54
21730;BME280;11027;51.030;13.812;2023-04-25T02:20:37;99378.78;;;10.01;61.77
21730;BME280;11027;51.030;13.812;2023-04-25T02:23:03;99379.19;;;9.98;61.73
21730;BME280;11027;51.030;13.812;2023-04-25T02:25:28;99380.63;;;9.94;61.72
21730;BME280;11027;51.030;13.812;2023-04-25T02:27:54;99373.63;;;9.85;62.04
21730;BME280;11027;51.030;13.812;2023-04-25T02:30:19;99363.13;;;9.81;62.03
21730;BME280;11027;51.030;13.812;2023-04-25T02:32:45;99373.94;;;9.75;62.13
21730;BME280;11027;51.030;13.812;2023-04-25T02:35:10;99377.38;;;9.62;62.27
21730;BME280;11027;51.030;13.812;2023-04-25T02:37:37;99375.34;;;9.49;62.69
21730;BME280;11027;51.030;13.812;2023-04-25T02:40:03;99374.50;;;9.49;62.53
21730;BME280;11027;51.030;13.812;2023-04-25T02:42:29;99374.63;;;9.40;62.90
21730;BME280;11027;51.030;13.812;2023-04-25T02:44:54;99369.84;;;9.43;63.22
21730;BME280;11027;51.030;13.812;2023-04-25T02:47:20;99374.50;;;9.49;63.02
21730;BME280;11027;51.030;13.812;2023-04-25T02:49:45;99373.75;;;9.55;62.99
21730;BME280;11027;51.030;13.812;2023-04-25T02:52:11;99376.72;;;9.60;62.56
21730;BME280;11027;51.030;13.812;2023-04-25T02:54:36;99373.44;;;9.65;62.66
21730;BME280;11027;51.030;13.812;2023-04-25T02:57:01;99375.97;;;9.66;62.51
21730;BME280;11027;51.030;13.812;2023-04-25T02:59:27;99369.28;;;9.69;62.44
21730;BME280;11027;51.030;13.812;2023-04-25T03:01:53;99373.06;;;9.68;62.50
21730;BME280;11027;51.030;13.812;2023-04-25T03:04:18;99373.69;;;9.70;62.37
21730;BME280;11027;51.030;13.812;2023-04-25T03:06:44;99380.34;;;9.67;62.48
21730;BME280;11027;51.030;13.812;2023-04-25T03:09:09;99376.34;;;9.63;62.44
21730;BME280;11027;51.030;13.812;2023-04-25T03:11:35;99367.94;;;9.58;62.70
21730;BME280;11027;51.030;13.812;2023-04-25T03:14:00;99373.38;;;9.58;62.65
21730;BME280;11027;51.030;13.812;2023-04-25T03:16:25;99370.00;;;9.56;62.65
21730;BME280;11027;51.030;13.812;2023-04-25T03:18:51;99370.78;;;9.50;63.01
21730;BME280;11027;51.030;13.812;2023-04-25T03:21:16;99369.25;;;9.47;62.87
21730;BME280;11027;51.030;13.812;2023-04-25T03:23:41;99370.31;;;9.46;62.89
21730;BME280;11027;51.030;13.812;2023-04-25T03:26:07;99368.63;;;9.45;63.15
21730;BME280;11027;51.030;13.812;2023-04-25T03:28:32;99366.53;;;9.47;62.96
21730;BME280;11027;51.030;13.812;2023-04-25T03:30:57;99366.53;;;9.47;63.06
21730;BME280;11027;51.030;13.812;2023-04-25T03:33:22;99371.97;;;9.47;62.88
21730;BME280;11027;51.030;13.812;2023-04-25T03:35:48;99364.03;;;9.46;63.14
21730;BME280;11027;51.030;13.812;2023-04-25T03:38:14;99373.22;;;9.45;63.21
21730;BME280;11027;51.030;13.812;2023-04-25T03:40:40;99369.00;;;9.42;63.33
21730;BME280;11027;51.030;13.812;2023-04-25T03:43:05;99364.81;;;9.39;63.23
21730;BME280;11027;51.030;13.812;2023-04-25T03:45:31;99370.63;;;9.36;63.44
21730;BME280;11027;51.030;13.812;2023-04-25T03:47:56;99369.31;;;9.32;63.49
21730;BME280;11027;51.030;13.812;2023-04-25T03:50:22;99374.75;;;9.32;63.54
21730;BME280;11027;51.030;13.812;2023-04-25T03:52:47;99369.72;;;9.29;63.50
21730;BME280;11027;51.030;13.812;2023-04-25T03:55:12;99368.03;;;9.28;63.71
21730;BME280;11027;51.030;13.812;2023-04-25T03:57:38;99378.53;;;9.31;63.56
21730;BME280;11027;51.030;13.812;2023-04-25T04:00:04;99371.56;;;9.29;63.71
21730;BME280;11027;51.030;13.812;2023-04-25T04:02:29;99378.91;;;9.28;63.46
21730;BME280;11027;51.030;13.812;2023-04-25T04:04:55;99368.84;;;9.29;63.78
21730;BME280;11027;51.030;13.812;2023-04-25T04:07:21;99373.47;;;9.28;63.84
21730;BME280;11027;51.030;13.812;2023-04-25T04:09:46;99380.59;;;9.29;64.05
21730;BME280;11027;51.030;13.812;2023-04-25T04:12:12;99378.91;;;9.28;63.96
21730;BME280;11027;51.030;13.812;2023-04-25T04:14:37;99384.31;;;9.28;64.12
21730;BME280;11027;51.030;13.812;2023-04-25T04:17:02;99383.50;;;9.28;64.17
21730;BME280;11027;51.030;13.812;2023-04-25T04:19:28;99378.91;;;9.28;64.26
21730;BME280;11027;51.030;13.812;2023-04-25T04:21:53;99388.47;;;9.24;64.49
21730;BME280;11027;51.030;13.812;2023-04-25T04:24:18;99382.56;;;9.20;64.50
21730;BME280;11027;51.030;13.812;2023-04-25T04:26:43;99381.72;;;9.20;64.59
21730;BME280;11027;51.030;13.812;2023-04-25T04:29:10;99377.59;;;9.24;64.85
21730;BME280;11027;51.030;13.812;2023-04-25T04:31:35;99377.41;;;9.26;65.03
21730;BME280;11027;51.030;13.812;2023-04-25T04:34:00;99383.97;;;9.31;64.86
21730;BME280;11027;51.030;13.812;2023-04-25T04:36:26;99384.59;;;9.33;64.67
21730;BME280;11027;51.030;13.812;2023-04-25T04:38:52;99402.41;;;9.36;64.75
21730;BME280;11027;51.030;13.812;2023-04-25T04:41:18;99395.28;;;9.35;64.87
21730;BME280;11027;51.030;13.812;2023-04-25T04:43:44;99396.13;;;9.35;64.81
21730;BME280;11027;51.030;13.812;2023-04-25T04:46:09;99401.56;;;9.35;65.18
21730;BME280;11027;51.030;13.812;2023-04-25T04:48:35;99397.34;;;9.33;64.62
21730;BME280;11027;51.030;13.812;2023-04-25T04:51:00;99402.78;;;9.33;65.26
21730;BME280;11027;51.030;13.812;2023-04-25T04:53:26;99400.91;;;9.33;65.28
21730;BME280;11027;51.030;13.812;2023-04-25T04:55:52;99399.88;;;9.34;65.20
21730;BME280;11027;51.030;13.812;2023-04-25T04:58:17;99396.50;;;9.32;65.44
21730;BME280;11027;51.030;13.812;2023-04-25T05:00:43;99401.94;;;9.32;65.32
21730;BME280;11027;51.030;13.812;2023-04-25T05:03:08;99400.28;;;9.31;65.61
21730;BME280;11027;51.030;13.812;2023-04-25T05:05:33;99400.91;;;9.33;65.48
21730;BME280;11027;51.030;13.812;2023-04-25T05:07:58;99409.06;;;9.33;65.18
21730;BME280;11027;51.030;13.812;2023-04-25T05:10:24;99412.03;;;9.38;64.98
21730;BME280;11027;51.030;13.812;2023-04-25T05:12:49;99406.25;;;9.41;65.04
21730;BME280;11027;51.030;13.812;2023-04-25T05:15:14;99403.31;;;9.43;64.97
21730;BME280;11027;51.030;13.812;2023-04-25T05:17:39;99404.59;;;9.47;64.92
21730;BME280;11027;51.030;13.812;2023-04-25T05:20:08;99410.50;;;9.51;64.69
21730;BME280;11027;51.030;13.812;2023-04-25T05:22:36;99410.13;;;9.54;64.08
21730;BME280;11027;51.030;13.812;2023-04-25T05:25:02;99406.88;;;9.44;64.29
21730;BME280;11027;51.030;13.812;2023-04-25T05:27:28;99409.22;;;9.47;64.21
21730;BME280;11027;51.030;13.812;2023-04-25T05:29:53;99406.59;;;9.38;63.83
21730;BME280;11027;51.030;13.812;2023-04-25T05:32:19;99413.66;;;9.33;63.62
21730;BME280;11027;51.030;13.812;2023-04-25T05:34:44;99412.66;;;9.19;63.42
21730;BME280;11027;51.030;13.812;2023-04-25T05:37:09;99405.34;;;9.05;63.67
21730;BME280;11027;51.030;13.812;2023-04-25T05:39:35;99412.31;;;8.92;64.14
21730;BME280;11027;51.030;13.812;2023-04-25T05:42:00;99415.66;;;8.94;64.25
21730;BME280;11027;51.030;13.812;2023-04-25T05:44:26;99413.50;;;9.05;64.08
21730;BME280;11027;51.030;13.812;2023-04-25T05:46:52;99418.41;;;9.09;63.46
21730;BME280;11027;51.030;13.812;2023-04-25T05:49:17;99414.56;;;9.04;62.77
21730;BME280;11027;51.030;13.812;2023-04-25T05:51:42;99422.03;;;9.01;62.57
21730;BME280;11027;51.030;13.812;2023-04-25T05:54:07;99427.47;;;9.01;62.34
21730;BME280;11027;51.030;13.812;2023-04-25T05:56:33;99426.34;;;8.96;61.69
21730;BME280;11027;51.030;13.812;2023-04-25T05:58:58;99425.88;;;8.92;61.44
21730;BME280;11027;51.030;13.812;2023-04-25T06:01:23;99430.94;;;8.95;61.41
21730;BME280;11027;51.030;13.812;2023-04-25T06:03:49;99430.47;;;8.92;61.33
21730;BME280;11027;51.030;13.812;2023-04-25T06:06:14;99426.53;;;8.94;61.59
21730;BME280;11027;51.030;13.812;2023-04-25T06:08:40;99423.34;;;9.06;61.53
21730;BME280;11027;51.030;13.812;2023-04-25T06:11:06;99422.97;;;9.09;61.06
21730;BME280;11027;51.030;13.812;2023-04-25T06:13:31;99423.72;;;9.02;60.83
21730;BME280;11027;51.030;13.812;2023-04-25T06:15:56;99425.69;;;8.94;60.95
21730;BME280;11027;51.030;13.812;2023-04-25T06:18:22;99445.66;;;8.86;60.78
21730;BME280;11027;51.030;13.812;2023-04-25T06:20:47;99436.00;;;8.84;60.97
21730;BME280;11027;51.030;13.812;2023-04-25T06:23:12;99425.63;;;8.87;61.26
21730;BME280;11027;51.030;13.812;2023-04-25T06:25:37;99448.00;;;8.89;61.46
21730;BME280;11027;51.030;13.812;2023-04-25T06:28:03;99427.28;;;8.88;60.99
21730;BME280;11027;51.030;13.812;2023-04-25T06:30:28;99423.81;;;8.94;61.14
21730;BME280;11027;51.030;13.812;2023-04-25T06:32:53;99424.94;;;9.00;60.97
21730;BME280;11027;51.030;13.812;2023-04-25T06:35:19;99429.91;;;8.96;61.19
21730;BME280;11027;51.030;13.812;2023-04-25T06:37:44;99424.09;;;8.99;61.21
21730;BME280;11027;51.030;13.812;2023-04-25T06:40:10;99424.28;;;9.13;61.40
21730;BME280;11027;51.030;13.812;2023-04-25T06:42:36;99429.34;;;9.16;60.51
21730;BME280;11027;51.030;13.812;2023-04-25T06:45:01;99422.50;;;9.20;60.61
21730;BME280;11027;51.030;13.812;2023-04-25T06:47:26;99434.00;;;9.22;60.72
21730;BME280;11027;51.030;13.812;2023-04-25T06:49:51;99423.16;;;9.22;60.39
21730;BME280;11027;51.030;13.812;2023-04-25T06:52:17;99413.31;;;9.21;59.80
21730;BME280;11027;51.030;13.812;2023-04-25T06:54:43;99415.63;;;9.24;59.78
21730;BME280;11027;51.030;13.812;2023-04-25T06:57:08;99423.22;;;9.29;59.88
21730;BME280;11027;51.030;13.812;2023-04-25T06:59:33;99428.09;;;9.33;59.68
21730;BME280;11027;51.030;13.812;2023-04-25T07:01:58;99418.25;;;9.32;59.28
21730;BME280;11027;51.030;13.812;2023-04-25T07:04:24;99423.03;;;9.30;59.19
21730;BME280;11027;51.030;13.812;2023-04-25T07:06:49;99426.59;;;9.31;59.36
21730;BME280;11027;51.030;13.812;2023-04-25T07:09:14;99417.34;;;9.25;58.80
21730;BME280;11027;51.030;13.812;2023-04-25T07:11:39;99420.72;;;9.27;59.20
21730;BME280;11027;51.030;13.812;2023-04-25T07:14:05;99434.19;;;9.35;59.09
21730;BME280;11027;51.030;13.812;2023-04-25T07:16:30;99424.88;;;9.45;58.87
21730;BME280;11027;51.030;13.812;2023-04-25T07:18:55;99425.97;;;9.50;58.69
21730;BME280;11027;51.030;13.812;2023-04-25T07:21:21;99428.78;;;9.57;58.60
21730;BME280;11027;51.030;13.812;2023-04-25T07:23:46;99428.66;;;9.65;58.52
21730;BME280;11027;51.030;13.812;2023-04-25T07:26:11;99450.16;;;9.81;58.07
21730;BME280;11027;51.030;13.812;2023-04-25T07:28:37;99434.75;;;9.89;57.88
21730;BME280;11027;51.030;13.812;2023-04-25T07:31:02;99432.84;;;10.04;56.97
21730;BME280;11027;51.030;13.812;2023-04-25T07:33:27;99426.97;;;10.07;56.09
21730;BME280;11027;51.030;13.812;2023-04-25T07:35:53;99432.56;;;10.20;56.02
21730;BME280;11027;51.030;13.812;2023-04-25T07:38:18;99432.78;;;10.26;55.28
21730;BME280;11027;51.030;13.812;2023-04-25T07:40:43;99430.06;;;10.26;55.40
21730;BME280;11027;51.030;13.812;2023-04-25T07:43:09;99420.13;;;10.33;55.14
21730;BME280;11027;51.030;13.812;2023-04-25T07:45:34;99432.34;;;10.44;54.94
21730;BME280;11027;51.030;13.812;2023-04-25T07:47:59;99432.00;;;10.53;55.18
21730;BME280;11027;51.030;13.812;2023-04-25T07:50:24;99415.03;;;10.51;54.69
21730;BME280;11027;51.030;13.812;2023-04-25T07:52:50;99422.94;;;10.46;54.60
21730;BME280;11027;51.030;13.812;2023-04-25T07:55:15;99430.72;;;10.49;54.90
21730;BME280;11027;51.030;13.812;2023-04-25T07:57:41;99427.34;;;10.47;54.71
21730;BME280;11027;51.030;13.812;2023-04-25T08:00:07;99430.91;;;10.48;54.75
21730;BME280;11027;51.030;13.812;2023-04-25T08:02:36;99426.56;;;10.53;54.39
21730;BME280;11027;51.030;13.812;2023-04-25T08:05:02;99441.66;;;10.56;53.74
21730;BME280;11027;51.030;13.812;2023-04-25T08:07:27;99425.53;;;10.54;53.89
21730;BME280;11027;51.030;13.812;2023-04-25T08:09:53;99447.56;;;10.59;53.70
21730;BME280;11027;51.030;13.812;2023-04-25T08:12:18;99439.91;;;10.48;53.62
21730;BME280;11027;51.030;13.812;2023-04-25T08:14:44;99435.72;;;10.46;53.84
21730;BME280;11027;51.030;13.812;2023-04-25T08:17:09;99444.59;;;10.54;54.13
21730;BME280;11027;51.030;13.812;2023-04-25T08:19:35;99437.06;;;10.56;54.07
21730;BME280;11027;51.030;13.812;2023-04-25T08:22:00;99452.63;;;10.63;53.50
21730;BME280;11027;51.030;13.812;2023-04-25T08:24:25;99437.59;;;10.73;52.58
21730;BME280;11027;51.030;13.812;2023-04-25T08:26:51;99427.16;;;10.77;53.14
21730;BME280;11027;51.030;13.812;2023-04-25T08:29:16;99442.44;;;10.78;53.14
21730;BME280;11027;51.030;13.812;2023-04-25T08:31:41;99447.66;;;10.73;53.59
21730;BME280;11027;51.030;13.812;2023-04-25T08:34:07;99438.25;;;10.82;53.80
21730;BME280;11027;51.030;13.812;2023-04-25T08:36:32;99458.84;;;10.85;52.45
21730;BME280;11027;51.030;13.812;2023-04-25T08:38:58;99443.97;;;10.87;53.13
21730;BME280;11027;51.030;13.812;2023-04-25T08:41:24;99446.53;;;10.95;53.38
21730;BME280;11027;51.030;13.812;2023-04-25T08:43:51;99452.81;;;10.96;53.65
21730;BME280;11027;51.030;13.812;2023-04-25T08:46:19;99455.53;;;10.96;53.63
21730;BME280;11027;51.030;13.812;2023-04-25T08:48:45;99469.38;;;10.94;53.69
21730;BME280;11027;51.030;13.812;2023-04-25T08:51:20;99471.31;;;10.72;54.02
21730;BME280;11027;51.030;13.812;2023-04-25T08:53:49;99462.88;;;10.60;54.68
21730;BME280;11027;51.030;13.812;2023-04-25T08:56:16;99466.88;;;10.65;54.96
21730;BME280;11027;51.030;13.812;2023-04-25T08:58:43;99472.75;;;10.68;55.16
21730;BME280;11027;51.030;13.812;2023-04-25T09:01:11;99467.09;;;10.70;55.39
21730;BME280;11027;51.030;13.812;2023-04-25T09:03:36;99474.03;;;10.72;54.91
21730;BME280;11027;51.030;13.812;2023-04-25T09:06:01;99474.09;;;10.79;54.85
21730;BME280;11027;51.030;13.812;2023-04-25T09:08:27;99474.53;;;10.82;55.04
21730;BME280;11027;51.030;13.812;2023-04-25T09:10:52;99493.41;;;10.84;55.24
21730;BME280;11027;51.030;13.812;2023-04-25T09:13:24;99475.28;;;10.70;55.30
21730;BME280;11027;51.030;13.812;2023-04-25T09:15:52;99489.41;;;10.80;55.62
21730;BME280;11027;51.030;13.812;2023-04-25T09:18:28;99490.94;;;10.89;55.80
21730;BME280;11027;51.030;13.812;2023-04-25T09:20:55;99480.53;;;10.99;55.26
21730;BME280;11027;51.030;13.812;2023-04-25T09:23:22;99487.28;;;11.10;54.81
21730;BME280;11027;51.030;13.812;2023-04-25T09:25:49;99499.25;;;11.09;54.73
21730;BME280;11027;51.030;13.812;2023-04-25T09:28:15;99501.06;;;11.02;54.35
21730;BME280;11027;51.030;13.812;2023-04-25T09:30:41;99499.72;;;10.85;54.53
21730;BME280;11027;51.030;13.812;2023-04-25T09:33:10;99513.88;;;10.73;54.85
21730;BME280;11027;51.030;13.812;2023-04-25T09:35:44;99515.13;;;10.71;55.28
21730;BME280;11027;51.030;13.812;2023-04-25T09:38:11;99508.38;;;10.67;56.05
21730;BME280;11027;51.030;13.812;2023-04-25T09:40:45;99516.06;;;10.56;56.02
21730;BME280;11027;51.030;13.812;2023-04-25T09:43:19;99530.84;;;10.47;55.47
21730;BME280;11027;51.030;13.812;2023-04-25T09:45:44;99521.09;;;10.38;54.39
21730;BME280;11027;51.030;13.812;2023-04-25T09:48:11;99520.91;;;10.39;55.26
21730;BME280;11027;51.030;13.812;2023-04-25T09:50:37;99527.47;;;10.45;55.74
21730;BME280;11027;51.030;13.812;2023-04-25T09:53:04;99530.66;;;10.49;56.43
21730;BME280;11027;51.030;13.812;2023-04-25T09:55:32;99535.91;;;10.50;56.83
21730;BME280;11027;51.030;13.812;2023-04-25T09:58:04;99540.44;;;10.43;56.56
21730;BME280;11027;51.030;13.812;2023-04-25T10:00:32;99533.97;;;10.29;56.58
21730;BME280;11027;51.030;13.812;2023-04-25T10:03:00;99539.09;;;10.17;57.60
21730;BME280;11027;51.030;13.812;2023-04-25T10:05:27;99530.72;;;10.19;57.83
21730;BME280;11027;51.030;13.812;2023-04-25T10:07:55;99534.94;;;10.36;57.51
21730;BME280;11027;51.030;13.812;2023-04-25T10:10:21;99537.06;;;10.41;57.65
21730;BME280;11027;51.030;13.812;2023-04-25T10:12:51;99537.25;;;10.61;57.13
21730;BME280;11027;51.030;13.812;2023-04-25T10:15:16;99539.50;;;10.79;56.70
21730;BME280;11027;51.030;13.812;2023-04-25T10:17:41;99539.53;;;10.86;56.68
21730;BME280;11027;51.030;13.812;2023-04-25T10:20:08;99537.97;;;11.05;56.77
21730;BME280;11027;51.030;13.812;2023-04-25T10:22:37;99551.09;;;11.23;56.22
21730;BME280;11027;51.030;13.812;2023-04-25T10:25:04;99541.97;;;11.37;55.58
21730;BME280;11027;51.030;13.812;2023-04-25T10:27:31;99542.88;;;11.51;55.26
21730;BME280;11027;51.030;13.812;2023-04-25T10:30:03;99536.88;;;11.62;54.76
21730;BME280;11027;51.030;13.812;2023-04-25T10:32:35;99544.25;;;11.68;54.82
21730;BME280;11027;51.030;13.812;2023-04-25T10:35:13;99543.75;;;11.51;54.48
21730;BME280;11027;51.030;13.812;2023-04-25T10:37:56;99544.50;;;11.38;55.07
21730;BME280;11027;51.030;13.812;2023-04-25T10:40:22;99541.38;;;11.41;55.20
21730;BME280;11027;51.030;13.812;2023-04-25T10:42:48;99538.22;;;11.45;55.58
21730;BME280;11027;51.030;13.812;2023-04-25T10:45:14;99547.50;;;11.50;55.90
21730;BME280;11027;51.030;13.812;2023-04-25T10:47:43;99544.38;;;11.53;55.53
21730;BME280;11027;51.030;13.812;2023-04-25T10:50:10;99553.41;;;11.54;55.40
21730;BME280;11027;51.030;13.812;2023-04-25T10:52:38;99554.25;;;11.61;53.95
21730;BME280;11027;51.030;13.812;2023-04-25T10:55:04;99546.72;;;11.63;54.11
21730;BME280;11027;51.030;13.812;2023-04-25T10:57:40;99554.88;;;11.56;54.02
21730;BME280;11027;51.030;13.812;2023-04-25T11:00:11;99567.53;;;11.29;53.89
21730;BME280;11027;51.030;13.812;2023-04-25T11:02:57;99548.88;;;11.05;55.25
21730;BME280;11027;51.030;13.812;2023-04-25T11:05:32;99556.53;;;10.88;56.33
21730;BME280;11027;51.030;13.812;2023-04-25T11:07:59;99561.94;;;10.81;56.63
21730;BME280;11027;51.030;13.812;2023-04-25T11:10:25;99558.19;;;10.60;57.08
21730;BME280;11027;51.030;13.812;2023-04-25T11:12:51;99569.97;;;10.46;57.92
21730;BME280;11027;51.030;13.812;2023-04-25T11:15:16;99570.75;;;10.40;58.68
21730;BME280;11027;51.030;13.812;2023-04-25T11:17:41;99578.56;;;10.43;58.88
21730;BME280;11027;51.030;13.812;2023-04-25T11:20:08;99590.94;;;10.46;59.11
21730;BME280;11027;51.030;13.812;2023-04-25T11:22:37;99593.97;;;10.36;59.22
21730;BME280;11027;51.030;13.812;2023-04-25T11:25:06;99587.22;;;10.32;59.78
21730;BME280;11027;51.030;13.812;2023-04-25T11:27:32;99624.41;;;10.25;60.00
21730;BME280;11027;51.030;13.812;2023-04-25T11:29:57;99605.94;;;10.20;60.38
21730;BME280;11027;51.030;13.812;2023-04-25T11:32:23;99616.34;;;10.16;61.60
21730;BME280;11027;51.030;13.812;2023-04-25T11:34:48;99614.47;;;10.17;62.40
21730;BME280;11027;51.030;13.812;2023-04-25T11:37:14;99630.97;;;10.15;62.15
21730;BME280;11027;51.030;13.812;2023-04-25T11:39:43;99639.72;;;10.11;62.84
21730;BME280;11027;51.030;13.812;2023-04-25T11:42:09;99620.19;;;10.22;61.54
21730;BME280;11027;51.030;13.812;2023-04-25T11:44:34;99624.00;;;10.28;60.12
21730;BME280;11027;51.030;13.812;2023-04-25T11:46:59;99611.47;;;10.48;60.02
21730;BME280;11027;51.030;13.812;2023-04-25T11:49:30;99635.50;;;10.59;59.59
21730;BME280;11027;51.030;13.812;2023-04-25T11:51:55;99614.63;;;10.67;58.97
21730;BME280;11027;51.030;13.812;2023-04-25T11:54:22;99629.31;;;10.94;58.58
21730;BME280;11027;51.030;13.812;2023-04-25T11:56:47;99625.47;;;11.10;58.14
21730;BME280;11027;51.030;13.812;2023-04-25T11:59:13;99622.34;;;11.13;56.32
21730;BME280;11027;51.030;13.812;2023-04-25T12:01:40;99619.59;;;11.13;55.72
21730;BME280;11027;51.030;13.812;2023-04-25T12:04:13;99621.81;;;11.24;54.42
21730;BME280;11027;51.030;13.812;2023-04-25T12:06:40;99623.84;;;11.44;54.36
21730;BME280;11027;51.030;13.812;2023-04-25T12:09:08;99631.38;;;11.41;53.85
21730;BME280;11027;51.030;13.812;2023-04-25T12:11:47;99632.09;;;11.00;54.23
21730;BME280;11027;51.030;13.812;2023-04-25T12:14:24;99640.41;;;10.92;54.79
21730;BME280;11027;51.030;13.812;2023-04-25T12:16:50;99628.94;;;10.75;54.72
21730;BME280;11027;51.030;13.812;2023-04-25T12:19:19;99629.25;;;10.66;55.57
21730;BME280;11027;51.030;13.812;2023-04-25T12:21:46;99628.94;;;10.75;55.57
21730;BME280;11027;51.030;13.812;2023-04-25T12:24:14;99636.59;;;10.65;55.87
21730;BME280;11027;51.030;13.812;2023-04-25T12:29:26;99637.22;;;10.46;56.72
21730;BME280;11027;51.030;13.812;2023-04-25T12:31:52;99626.41;;;10.52;56.58
21730;BME280;11027;51.030;13.812;2023-04-25T12:34:21;99639.31;;;10.65;56.09
21730;BME280;11027;51.030;13.812;2023-04-25T12:36:47;99635.25;;;10.54;54.89
21730;BME280;11027;51.030;13.812;2023-04-25T12:39:20;99617.25;;;10.60;54.87
21730;BME280;11027;51.030;13.812;2023-04-25T12:41:50;99629.13;;;10.74;54.12
21730;BME280;11027;51.030;13.812;2023-04-25T12:44:16;99628.94;;;10.97;52.87
21730;BME280;11027;51.030;13.812;2023-04-25T12:46:42;99623.78;;;11.37;53.08
21730;BME280;11027;51.030;13.812;2023-04-25T12:49:07;99617.69;;;12.05;51.94
21730;BME280;11027;51.030;13.812;2023-04-25T12:51:34;99626.25;;;12.50;50.31
21730;BME280;11027;51.030;13.812;2023-04-25T12:54:00;99617.00;;;12.57;48.97